Weather


ICAO METAR
KABI KABI 101752Z 30006KT 10SM CLR 11/01 A3037 RMK AO2 SLP285 T01060006 10106 21022 58006
KACT KACT 101751Z 00000KT 10SM CLR 12/01 A3040 RMK AO2 SLP293 T01170006 10117 21011 58006
KADM KADM 101755Z 00000KT 10SM SCT100 10/01 A3036
KADS KADS 101747Z 26003KT 10SM SKC 10/M03 A3041
KAFW KAFW 101753Z 26006KT 10SM CLR 11/M04 A3038 RMK AO2 SLP293 T01111039 10111 20000 58003
KBAD KBAD 101656Z 32005KT 7SM CLR 11/M04 A3042 RMK AO2A SLPNO WND DATA ESTMD ALSTG ESTMD $
KCNW KCNW 101755Z 29005KT 10SM SKC 11/00 A3041
KCSM KCSM 101753Z 01008KT 10SM CLR 08/M09 A3035 RMK AO2 SLP285 T00781089 10078 21022 50000
KDAL KDAL 101753Z 23004KT 10SM CLR 12/M01 A3039 RMK AO2 SLP291 T01171006 10122 20011 58004
KDFW KDFW 101753Z 21005KT 10SM CLR 11/M02 A3037 RMK AO2 SLP285 T01061022 10106 21011 58003
KDTN KDTN 101753Z VRB03KT 10SM CLR 08/M02 A3037 RMK AO2 SLP284 T00781022 10078 21011 58002
KDTO KDTO 101753Z 28005KT 10SM CLR 11/00 A3038 RMK AO2 SLP289 T01110000 10111 21028 58004
KDYS KDYS 101756Z 28005KT 10SM CLR 10/M01 A3036 RMK AO2A SLPNO T01001011 10100 21037 $
KFSI KFSI 101756Z AUTO 02006KT 10SM CLR 09/M02 A3035 RMK AO2 SLP284 T00881016 10088 21047 50002
KFTW KFTW 101753Z 29004KT 10SM CLR 11/M03 A3038 RMK AO2 SLP289 T01111033 10111 21011 58003
KFWS KFWS 101750Z 29004KT 10SM CLR 12/M05 A3040
KGGG KGGG 101753Z 00000KT 10SM CLR 08/M01 A3037 RMK AO2 SLP288 T00831011 10083 21022 58002
KGKY KGKY 101753Z 29004KT 10SM CLR 11/M03 A3039 RMK AO2 SLP292 T01111028 10111 20000 58001
KGPM KGPM 101750Z 00000KT 10SM SKC 11/M03 A3042
KGVT KGVT 101735Z AUTO 00000KT 10SM CLR 11/M01 A3040 RMK AO2
KGYI KGYI 101756Z 250/03KT 10SM CLR 09/M02 A3039
KLAW KLAW 101753Z 35008KT 10SM CLR 09/M03 A3036 RMK AO2 SLP289 T00941028 10094 21056 50001
KLBB KLBB 101753Z COR 27007KT 8SM CLR 03/M01 A3034 RMK 4/003 BR ALQDS
KLTS KLTS 101756Z AUTO 03007KT 10SM CLR 09/M06 A3036 RMK AO2 SLP286 T00901064 10093 21050 58004 $
KMAF KMAF 101753Z 23007KT 7SM CLR 10/04 A3039 RMK AO2 SLP284 T01000039 10100 21022 58001
KMLU KMLU 101753Z 30007KT 10SM CLR 07/M02 A3036 RMK AO2 SLP282 I6000 T00671022 10067 21011 58003
KNFW KNFW 101752Z 03004KT 10SM CLR 12/M02 A3039 RMK AO2 SLP273 T01221022 10122 20000 58003 VISNO N $
KOKC KOKC 101752Z 01005KT 10SM CLR 07/M04 A3034 RMK AO2 SLP283 T00671044 10067 21050 58002
KOUN KOUN 101748Z 00000KT 10SM CLR 07/M03 A3034
KPWA KPWA 101753Z 33006KT 10SM CLR 06/M04 A3036 RMK AO2 SLP290 T00561039 10056 21050 50000
KRBD KRBD 101753Z 30006KT 10SM CLR 10/M04 A3038 RMK AO2 SLP290 6//// T01001039 10106 20006 58001 PNO $
KSHV KSHV 101756Z 35005KT 10SM CLR 08/M02 A3036 RMK AO2 SLP282 T00831017 10083 21011 58001
KSJT KSJT 101751Z 25010KT 7SM CLR 11/02 A3039 RMK AO2 SLP299 T01110022 10117 21033 58006
KSPS KSPS 101752Z VRB06KT 10SM CLR 09/01 A3036 RMK AO2 SLP285 T00890006 10089 21022 58003
KTIK KTIK 101756Z AUTO 32003KT 10SM CLR 06/M04 A3034 RMK AO2 SLP290 T00621043 10063 21022 58003
KTKI KTKI 101753Z 00000KT 10SM CLR 10/M01 A3038 RMK AO2 SLP301 T01001011 10106 21011 58004
KTXK KTXK 101753Z 32003KT 10SM CLR 07/M03 A3037 RMK AO2 SLP286 T00721033 10072 21017 58001
KTYR KTYR 101753Z 33007KT 10SM CLR 10/M06 A3038 RMK AO2 SLP289 T01001056 10106 21011 58000

Next Generation Radar
Click here.

This is a composite plot of the radar summary, echo tops, storm movement, TVS and MESO signatures and watch boxes. The radar summary is color coded by precip type. Greens, yellows and reds are rain. Pinks are mixed precipitation (freezing rain, sleet). Blues are snow. NOTE: Radar data is susceptible to a phenomena called anomalous propagation. This generally happens at night and appears as a area of 20 dBZ echos (darkest green) which is centered around each radar site and expands with time. To try and reduce the problem, low echo values near the radar sites have been removed.


GOES 13 Visible Radar

This image is the equivalent of taking a black and white photo of the earth. The bright areas show where the sun is being reflected back into space as a result of clouds or snow cover. Clouds and snow show up white. The thicker the cloud, the brighter the color. Land surfaces show up as gray and ocean surfaces nearly black. The major limitation to visible imagery is that it is only valid during daylight.

GOES 13 Infrared 12 Hour Loop

This type of image shows heat based radiation from the infrared spectrum. In other words, the warmer the surface, the more infrared radiation it emits. For a satellite image, cooler surfaces are bright and warmer surfaces are dark. Since the atmosphere cools as you increase in altitude, clouds would show up as bright areas and land surfaces as dark areas. In addition, low clouds will be more gray and higher clouds will show up more white. Tall thunderstorm clouds will show up as bright white and fog will be hard to discern from land areas. A large advantage of IR is that you can view it 24 hours a day.


Surface Data
Click here.

This is a composite map contain the following analyses: radar summary (color filled areas), surface data plot (composite station model), frontal locations (in various bold lines) and pressure contours (in thin blue lines).